Missoula, Montana
Current Conditions -  °F | °C
As of 4:53 PM on Wednesday 28 Jan 2015 (Local Time) from KMSO Reporting Station
Overcast Overcast  
Wind Chill: 41°   Ceiling: 6500
Heat Index: 45°   Visibility: 10mi
Dew Point: 29°   Wind: 7mph
Humidity: 53%   Direction: 350°N
Pressure: 30.34"   Gusts: NA
Location:  46.87°N, 113.99°W
Report Text: KMSO 282353Z 35006KT 10SM OVC065 07/M02 A3034 RMK AO2 SLP300 T00721017 10083 20011 53007
Loading
Personal Weather Stations






























Interactive Weather Map New forecast layout! Learn more

10-Day Weather Forecast

Advertisements
Track Severe Weather on mobile